Time;durP1;ratioP1;P1;durP2;ratioP2;P2;SDS_P1;SDS_P2;PMS_P1;PMS_P2;Temp;Humidity;BMP_temperature;BMP_pressure;BME280_temperature;BME280_humidity;BME280_pressure;Samples;Min_cycle;Max_cycle;Signal;HPM_P1;HPM_P2
2022/04/29 00:00:09;;;;;;;9.77;8.27;;;;;;;10.74;100.00;94951.25;5096269;28;20187;-61
2022/04/29 00:02:35;;;;;;;10.13;8.07;;;;;;;10.70;100.00;94952.44;5114035;28;20196;-60
2022/04/29 00:05:02;;;;;;;8.33;7.47;;;;;;;10.70;100.00;94957.53;5114470;28;20732;-60
2022/04/29 00:07:27;;;;;;;9.30;7.63;;;;;;;10.70;100.00;94954.97;5114317;28;20196;-60
2022/04/29 00:09:53;;;;;;;9.80;8.30;;;;;;;10.63;100.00;94948.75;5095816;28;20676;-59
2022/04/29 00:12:19;;;;;;;7.77;6.97;;;;;;;10.61;100.00;94946.34;5113989;28;20192;-59
2022/04/29 00:14:45;;;;;;;10.77;8.67;;;;;;;10.65;100.00;94952.81;5095724;28;20203;-59
2022/04/29 00:17:11;;;;;;;9.27;8.27;;;;;;;10.59;100.00;94943.13;5113880;28;20282;-61
2022/04/29 00:19:38;;;;;;;8.50;6.90;;;;;;;10.54;100.00;94945.25;5113688;28;20194;-60
2022/04/29 00:22:03;;;;;;;9.37;7.40;;;;;;;10.51;100.00;94949.75;5095581;28;20257;-60
2022/04/29 00:24:30;;;;;;;8.50;7.60;;;;;;;10.45;100.00;94951.03;5113850;28;20637;-60
2022/04/29 00:26:56;;;;;;;9.93;7.27;;;;;;;10.43;100.00;94957.97;5113592;28;20199;-59
2022/04/29 00:29:21;;;;;;;8.17;6.90;;;;;;;10.48;100.00;94950.81;5113843;28;20180;-60
2022/04/29 00:31:47;;;;;;;9.67;7.17;;;;;;;10.37;100.00;94947.50;5113628;28;20191;-60
2022/04/29 00:34:12;;;;;;;9.57;7.80;;;;;;;10.40;100.00;94948.06;5113842;28;20183;-59
2022/04/29 00:36:38;;;;;;;9.73;7.97;;;;;;;10.47;100.00;94951.72;5113711;28;20192;-60
2022/04/29 00:39:03;;;;;;;9.07;7.20;;;;;;;10.55;100.00;94953.66;5095500;28;20731;-61
2022/04/29 00:41:29;;;;;;;9.30;8.03;;;;;;;10.46;100.00;94951.84;5113552;28;20554;-60
2022/04/29 00:43:59;;;;;;;11.60;8.13;;;;;;;10.41;100.00;94944.59;5113360;28;20192;-61
2022/04/29 00:46:25;;;;;;;8.90;7.70;;;;;;;10.47;100.00;94956.81;5113392;28;20176;-62
2022/04/29 00:48:50;;;;;;;9.70;8.33;;;;;;;10.44;100.00;94948.63;5078374;28;20584;-59
2022/04/29 00:51:16;;;;;;;10.43;8.97;;;;;;;10.41;100.00;94948.84;5113271;28;20316;-61
2022/04/29 00:53:41;;;;;;;9.77;7.93;;;;;;;10.38;100.00;94954.19;5120953;22;20227;-61
2022/04/29 00:56:10;;;;;;;9.00;7.37;;;;;;;10.33;100.00;94946.13;5113607;28;20187;-60
2022/04/29 00:59:05;;;;;;;10.90;8.97;;;;;;;10.37;100.00;94943.22;5092825;28;20184;-60
2022/04/29 01:01:37;;;;;;;9.23;7.83;;;;;;;10.33;100.00;94935.94;5093031;28;20207;-62
2022/04/29 01:04:04;;;;;;;8.87;7.97;;;;;;;10.32;100.00;94941.97;5092829;28;20157;-59
2022/04/29 01:06:30;;;;;;;8.47;7.13;;;;;;;10.30;100.00;94942.09;5092872;28;20275;-59
2022/04/29 01:08:56;;;;;;;11.87;8.37;;;;;;;10.26;100.00;94927.22;5092809;28;20181;-59
2022/04/29 01:11:24;;;;;;;10.87;8.67;;;;;;;10.30;100.00;94931.13;5092713;28;20234;-60
2022/04/29 01:13:51;;;;;;;9.90;7.63;;;;;;;10.32;100.00;94940.25;5092417;28;20183;-59
2022/04/29 01:16:18;;;;;;;9.67;7.70;;;;;;;10.33;100.00;94934.22;5073944;28;20188;-59
2022/04/29 01:18:45;;;;;;;10.10;8.27;;;;;;;10.31;100.00;94922.56;5092491;28;20252;-61
2022/04/29 01:21:12;;;;;;;10.97;8.87;;;;;;;10.30;100.00;94926.03;5092545;28;20180;-59
2022/04/29 01:23:38;;;;;;;9.57;8.10;;;;;;;10.40;100.00;94937.91;5074360;28;20196;-59
2022/04/29 01:26:04;;;;;;;11.30;9.13;;;;;;;10.40;100.00;94932.81;5092247;28;20247;-59
2022/04/29 01:28:30;;;;;;;14.70;8.77;;;;;;;10.41;100.00;94938.69;5092173;28;20193;-59
2022/04/29 01:30:58;;;;;;;11.30;9.13;;;;;;;10.49;100.00;94939.72;5091767;28;20187;-59
2022/04/29 01:33:28;;;;;;;11.03;9.20;;;;;;;10.44;100.00;94935.91;5113467;22;20216;-59
2022/04/29 01:35:54;;;;;;;11.33;8.77;;;;;;;10.55;100.00;94938.41;5112979;28;20179;-60
2022/04/29 01:38:19;;;;;;;11.30;8.27;;;;;;;10.43;100.00;94926.66;5112427;28;20195;-60
2022/04/29 01:40:45;;;;;;;11.73;8.33;;;;;;;10.35;100.00;94926.47;5112343;28;20168;-62
2022/04/29 01:43:17;;;;;;;9.80;7.93;;;;;;;10.32;100.00;94935.16;5112599;28;20195;-60
2022/04/29 01:45:44;;;;;;;10.23;8.27;;;;;;;10.33;100.00;94929.16;5112287;28;20199;-60
2022/04/29 01:48:09;;;;;;;10.53;8.57;;;;;;;10.33;100.00;94936.75;5112284;28;20195;-61
2022/04/29 01:50:34;;;;;;;12.07;9.07;;;;;;;10.33;100.00;94928.34;5112399;28;20253;-59
2022/04/29 01:53:00;;;;;;;9.60;7.73;;;;;;;10.36;100.00;94930.63;5112185;28;20191;-58
2022/04/29 01:55:25;;;;;;;8.43;7.53;;;;;;;10.31;100.00;94938.63;5112068;28;20182;-60
2022/04/29 01:57:51;;;;;;;8.97;8.07;;;;;;;10.32;100.00;94935.16;5112020;28;20196;-60
2022/04/29 02:00:17;;;;;;;12.87;8.87;;;;;;;10.31;100.00;94933.53;5112203;28;20176;-60
2022/04/29 02:02:43;;;;;;;10.93;8.37;;;;;;;10.32;100.00;94929.28;5112495;28;20195;-64
2022/04/29 02:05:09;;;;;;;9.70;8.07;;;;;;;10.35;100.00;94931.56;5112106;28;20195;-60
2022/04/29 02:07:35;;;;;;;9.03;8.07;;;;;;;10.31;100.00;94920.84;5111451;22;20223;-60
2022/04/29 02:10:01;;;;;;;11.03;8.17;;;;;;;10.38;100.00;94932.13;5091719;28;20177;-59
2022/04/29 02:12:26;;;;;;;10.23;8.07;;;;;;;10.38;100.00;94942.31;5092066;28;20207;-62
2022/04/29 02:14:52;;;;;;;10.97;7.87;;;;;;;10.34;100.00;94946.03;5091822;28;20566;-61
2022/04/29 02:17:17;;;;;;;9.33;8.13;;;;;;;10.26;100.00;94932.31;5092053;28;20602;-59
2022/04/29 02:19:43;;;;;;;9.80;7.83;;;;;;;10.19;100.00;94933.69;5091592;28;20638;-60
2022/04/29 02:22:09;;;;;;;12.10;9.33;;;;;;;10.18;100.00;94927.03;5091843;28;20200;-59
2022/04/29 02:24:35;;;;;;;11.63;8.77;;;;;;;10.19;100.00;94933.69;5091321;28;20202;-60
2022/04/29 02:27:02;;;;;;;11.70;7.97;;;;;;;10.20;100.00;94940.41;5091634;28;20231;-59
2022/04/29 02:29:28;;;;;;;11.53;9.13;;;;;;;10.18;100.00;94937.97;5091335;28;20176;-60
2022/04/29 02:31:54;;;;;;;10.93;8.90;;;;;;;10.16;100.00;94936.50;5091607;28;20219;-59
2022/04/29 02:34:20;;;;;;;11.57;9.07;;;;;;;10.22;100.00;94941.09;5091403;28;20210;-60
2022/04/29 02:36:47;;;;;;;12.23;9.73;;;;;;;10.26;100.00;94947.53;5073520;28;20208;-59
2022/04/29 02:39:12;;;;;;;13.13;9.37;;;;;;;10.20;100.00;94935.31;5091308;28;20187;-59
2022/04/29 02:41:38;;;;;;;11.47;9.07;;;;;;;10.22;100.00;94943.63;5091361;28;20196;-60
2022/04/29 02:44:04;;;;;;;9.23;8.07;;;;;;;10.18;100.00;94934.63;5093802;28;20176;-60
2022/04/29 02:46:29;;;;;;;10.87;9.03;;;;;;;10.24;100.00;94936.69;5095410;28;20241;-60
2022/04/29 02:48:55;;;;;;;12.53;8.90;;;;;;;10.14;100.00;94941.66;5095225;28;20184;-59
2022/04/29 02:51:20;;;;;;;11.03;9.07;;;;;;;10.20;100.00;94933.56;5095525;28;20276;-59
2022/04/29 02:53:46;;;;;;;11.87;9.27;;;;;;;10.22;100.00;94943.63;5095300;28;20251;-59
2022/04/29 02:56:11;;;;;;;10.97;8.43;;;;;;;10.12;100.00;94949.41;5095665;28;20555;-59
2022/04/29 02:58:37;;;;;;;12.53;9.27;;;;;;;10.16;100.00;94944.13;5095094;28;20183;-60
2022/04/29 03:01:03;;;;;;;16.90;9.20;;;;;;;10.09;100.00;94947.09;5077136;28;20184;-58
2022/04/29 03:03:29;;;;;;;13.00;9.13;;;;;;;10.06;100.00;94946.50;5094887;28;20196;-59
2022/04/29 03:05:54;;;;;;;11.27;8.93;;;;;;;10.09;100.00;94949.63;5095225;28;20277;-59
2022/04/29 03:08:20;;;;;;;13.30;9.27;;;;;;;10.14;100.00;94947.56;5095590;28;20196;-59
2022/04/29 03:10:46;;;;;;;11.60;9.73;;;;;;;10.16;100.00;94951.72;5095119;28;20229;-60
2022/04/29 03:13:13;;;;;;;13.13;8.93;;;;;;;10.33;100.00;94957.09;5094897;28;20662;-59
2022/04/29 03:15:38;;;;;;;10.83;8.87;;;;;;;10.28;100.00;94958.38;5094913;28;20204;-60
2022/04/29 03:18:20;;;;;;;11.23;8.50;;;;;;;10.19;100.00;94959.09;5076465;28;20239;-59
2022/04/29 03:20:50;;;;;;;10.17;8.77;;;;;;;10.12;100.00;94959.56;5094734;28;20253;-59
2022/04/29 03:23:16;;;;;;;12.10;9.03;;;;;;;10.17;100.00;94966.03;5076774;28;20200;-58
2022/04/29 03:25:41;;;;;;;11.87;9.33;;;;;;;10.17;100.00;94951.59;5094664;28;20249;-59
2022/04/29 03:28:07;;;;;;;11.57;9.10;;;;;;;10.16;100.00;94955.06;5094757;28;20274;-62
2022/04/29 03:30:34;;;;;;;11.67;8.97;;;;;;;10.15;100.00;94956.00;5094605;28;20226;-59
2022/04/29 03:33:02;;;;;;;11.50;9.10;;;;;;;10.21;100.00;94959.78;5076373;28;20291;-60
2022/04/29 03:35:27;;;;;;;12.17;9.33;;;;;;;10.24;100.00;94957.81;5094789;28;20230;-59
2022/04/29 03:37:53;;;;;;;13.10;9.50;;;;;;;10.23;100.00;94955.38;5076578;28;20215;-61
2022/04/29 03:40:24;;;;;;;10.53;8.50;;;;;;;10.19;100.00;94962.47;5094733;28;20177;-62
2022/04/29 03:42:51;;;;;;;10.50;9.00;;;;;;;10.24;100.00;94957.81;5094822;28;20299;-61
2022/04/29 03:45:17;;;;;;;13.23;9.63;;;;;;;10.19;100.00;94964.19;5094256;28;20215;-61
2022/04/29 03:47:43;;;;;;;12.53;8.70;;;;;;;10.23;100.00;94966.38;5094184;28;20207;-62
2022/04/29 03:50:10;;;;;;;11.17;8.80;;;;;;;10.17;100.00;94966.84;5094226;28;20176;-60
2022/04/29 03:52:50;;;;;;;14.00;9.10;;;;;;;10.28;100.00;94968.56;5094610;28;20204;-60
2022/04/29 03:55:21;;;;;;;10.53;8.33;;;;;;;10.14;100.00;94969.63;5093509;28;20227;-61
2022/04/29 03:57:47;;;;;;;11.20;8.17;;;;;;;10.19;100.00;94964.19;5094518;28;20292;-58
2022/04/29 04:00:13;;;;;;;11.83;9.00;;;;;;;10.18;100.00;94977.81;5093942;28;20267;-61
2022/04/29 04:02:39;;;;;;;10.97;8.67;;;;;;;10.09;100.00;94975.03;5093776;28;20208;-60
2022/04/29 04:05:06;;;;;;;12.57;8.50;;;;;;;10.09;100.00;94974.22;5093976;28;20204;-60
2022/04/29 04:07:32;;;;;;;12.90;9.90;;;;;;;10.15;100.00;94976.31;5094081;28;20223;-59
2022/04/29 04:09:58;;;;;;;10.80;8.77;;;;;;;10.11;100.00;94980.84;5094131;28;20184;-62
2022/04/29 04:12:24;;;;;;;16.50;9.10;;;;;;;10.04;100.00;94983.91;5094044;28;20673;-59
2022/04/29 04:14:50;;;;;;;12.50;9.27;;;;;;;10.10;100.00;94993.63;5093786;28;20172;-60
2022/04/29 04:17:16;;;;;;;11.47;9.40;;;;;;;10.10;100.00;94994.44;5093449;28;20204;-61
2022/04/29 04:19:41;;;;;;;12.03;9.07;;;;;;;10.12;100.00;94992.59;5093504;28;20184;-60
2022/04/29 04:22:07;;;;;;;12.80;9.87;;;;;;;10.17;100.00;94989.72;5093821;28;20294;-59
2022/04/29 04:24:33;;;;;;;12.33;9.10;;;;;;;10.19;100.00;94997.19;5093653;28;20239;-58
2022/04/29 04:26:58;;;;;;;13.07;9.57;;;;;;;10.06;100.00;94987.97;5093856;28;20623;-61
2022/04/29 04:29:24;;;;;;;14.33;9.50;;;;;;;10.00;100.00;94987.63;5093676;28;20188;-61
2022/04/29 04:31:51;;;;;;;15.13;9.30;;;;;;;10.04;100.00;94983.91;5093638;28;20227;-60
2022/04/29 04:37:01;;;;;;;11.90;8.83;;;;;;;10.18;100.00;94987.97;5093517;28;20235;-59
2022/04/29 04:39:27;;;;;;;11.03;8.83;;;;;;;10.23;100.00;94990.97;5093080;28;20176;-59
2022/04/29 04:41:52;;;;;;;13.57;9.63;;;;;;;10.18;100.00;94993.06;5093507;28;20204;-60
2022/04/29 04:44:18;;;;;;;11.50;9.27;;;;;;;10.24;100.00;94990.03;5093021;28;20220;-59
2022/04/29 04:46:43;;;;;;;12.47;9.17;;;;;;;10.28;100.00;94991.41;5093404;28;20216;-60
2022/04/29 04:49:11;;;;;;;15.67;10.93;;;;;;;10.35;100.00;94995.09;5093083;28;20180;-60
2022/04/29 04:51:37;;;;;;;13.77;9.67;;;;;;;10.43;100.00;94996.09;5092979;28;20291;-60
2022/04/29 04:54:02;;;;;;;14.40;10.50;;;;;;;10.46;100.00;94992.53;5092976;28;20260;-61
2022/04/29 04:56:28;;;;;;;13.50;9.97;;;;;;;10.41;100.00;94985.25;5074687;28;20207;-60
2022/04/29 04:58:53;;;;;;;13.77;10.63;;;;;;;10.39;100.00;94981.22;5092915;28;20566;-61
2022/04/29 05:01:19;;;;;;;14.07;10.47;;;;;;;10.40;100.00;94973.50;5093019;28;20200;-60
2022/04/29 05:03:44;;;;;;;17.37;12.00;;;;;;;10.42;100.00;94984.34;5093230;28;20544;-61
2022/04/29 05:06:10;;;;;;;14.67;10.93;;;;;;;10.40;100.00;94982.84;5092816;28;20643;-59
2022/04/29 05:08:35;;;;;;;16.60;11.43;;;;;;;10.37;100.00;94983.06;5093106;28;20279;-59
2022/04/29 05:11:01;;;;;;;20.77;12.73;;;;;;;10.41;100.00;94984.44;5092911;28;20218;-60
2022/04/29 05:13:27;;;;;;;17.90;11.60;;;;;;;10.68;100.00;94987.34;5092501;28;20200;-59
2022/04/29 05:15:52;;;;;;;15.50;11.50;;;;;;;10.59;100.00;94973.63;5092659;28;20259;-60
2022/04/29 05:18:18;;;;;;;15.83;11.57;;;;;;;10.50;100.00;94982.00;5074033;28;20290;-60
2022/04/29 05:20:44;;;;;;;17.17;12.60;;;;;;;10.51;100.00;94981.06;5092326;28;20187;-60
2022/04/29 05:23:09;;;;;;;21.03;13.30;;;;;;;10.47;100.00;94987.31;5092518;28;20192;-61
2022/04/29 05:25:35;;;;;;;18.80;12.10;;;;;;;10.40;100.00;94988.75;5092553;28;20631;-62
2022/04/29 05:28:01;;;;;;;18.77;13.33;;;;;;;10.33;100.00;94984.22;5092467;28;20196;-60
2022/04/29 05:30:27;;;;;;;18.97;13.53;;;;;;;10.39;100.00;94988.84;5092399;28;20172;-59
2022/04/29 05:32:53;;;;;;;18.47;13.77;;;;;;;10.35;100.00;94990.81;5092827;28;20204;-61
2022/04/29 05:35:18;;;;;;;20.67;11.97;;;;;;;10.51;100.00;94987.88;5092165;28;20179;-62
2022/04/29 05:37:44;;;;;;;16.37;12.23;;;;;;;10.52;100.00;94989.50;5092822;28;20196;-61
2022/04/29 05:42:55;;;;;;;22.77;12.70;;;;;;;10.65;100.00;94992.66;5093105;28;20285;-60
2022/04/29 05:45:20;;;;;;;17.50;12.77;;;;;;;10.69;100.00;94988.94;5092026;28;20199;-60
2022/04/29 05:47:45;;;;;;;16.67;12.90;;;;;;;10.85;100.00;94992.69;5092443;28;20290;-60
2022/04/29 05:50:11;;;;;;;19.13;12.97;;;;;;;11.02;100.00;94993.88;5091888;28;20176;-59
2022/04/29 05:52:36;;;;;;;21.47;13.43;;;;;;;11.06;100.00;95000.34;5092286;28;20662;-60
2022/04/29 05:55:02;;;;;;;17.67;12.73;;;;;;;11.09;100.00;95006.91;5092104;28;20181;-61
2022/04/29 05:57:34;;;;;;;15.87;11.50;;;;;;;11.10;100.00;95008.53;5092198;28;20646;-60
2022/04/29 06:00:01;;;;;;;18.23;12.47;;;;;;;11.05;100.00;95010.66;5091911;28;20169;-60
2022/04/29 06:02:27;;;;;;;16.93;12.37;;;;;;;11.21;100.00;95011.81;5091525;28;20230;-59
2022/04/29 06:04:52;;;;;;;16.03;11.80;;;;;;;11.35;100.00;95020.88;5091623;28;20196;-61
2022/04/29 06:07:18;;;;;;;15.20;12.07;;;;;;;11.35;100.00;95023.41;5073538;28;20212;-60
2022/04/29 06:10:02;;;;;;;15.00;11.37;;;;;;;11.40;100.00;95027.19;5091569;28;20195;-60
2022/04/29 06:12:28;;;;;;;16.33;11.70;;;;;;;11.44;100.00;95023.47;5092171;28;20211;-60
2022/04/29 06:14:54;;;;;;;17.60;11.57;;;;;;;11.52;100.00;95022.81;5091900;28;20209;-60
2022/04/29 06:17:21;;;;;;;19.00;13.30;;;;;;;11.64;100.00;95043.00;5091030;28;20725;-59
2022/04/29 06:19:46;;;;;;;18.03;13.33;;;;;;;11.71;100.00;95044.16;5091538;28;20187;-61
2022/04/29 06:22:12;;;;;;;22.53;12.80;;;;;;;11.82;100.00;95049.16;5092027;28;20208;-60
2022/04/29 06:24:39;;;;;;;17.67;12.07;;;;;;;11.68;100.00;95041.84;5091609;28;20231;-59
2022/04/29 06:27:05;;;;;;;13.60;11.20;;;;;;;11.52;100.00;95027.91;5073430;28;20207;-60
2022/04/29 06:29:30;;;;;;;16.50;11.90;;;;;;;11.64;100.00;95035.34;5091494;28;20225;-60
2022/04/29 06:31:56;;;;;;;16.23;11.47;;;;;;;11.72;100.00;95042.38;5091336;28;20698;-60
2022/04/29 06:34:22;;;;;;;15.30;11.30;;;;;;;11.49;100.00;95039.16;5091387;28;20188;-61
2022/04/29 06:36:48;;;;;;;14.40;10.33;;;;;;;11.65;100.00;95037.00;5091589;28;20295;-66
2022/04/29 06:39:13;;;;;;;14.23;11.00;;;;;;;11.69;100.00;95035.00;5091836;28;20252;-59
2022/04/29 06:41:40;;;;;;;12.87;10.47;;;;;;;11.68;100.00;95049.47;5091505;28;20279;-60
2022/04/29 06:44:06;;;;;;;12.67;10.67;;;;;;;11.70;100.00;95041.72;5091340;28;20176;-60
2022/04/29 06:46:32;;;;;;;14.40;9.83;;;;;;;11.75;100.00;95042.97;5091662;28;20289;-60
2022/04/29 06:48:58;;;;;;;13.37;10.80;;;;;;;11.94;100.00;95056.72;5091581;28;20172;-60
2022/04/29 06:51:23;;;;;;;15.03;10.73;;;;;;;11.91;100.00;95049.31;5091616;28;20188;-60
2022/04/29 06:53:49;;;;;;;13.10;10.53;;;;;;;11.89;100.00;95046.09;5091334;28;20176;-60
2022/04/29 06:56:15;;;;;;;13.03;10.07;;;;;;;11.97;100.00;95044.53;5091373;28;20185;-59
2022/04/29 06:58:41;;;;;;;14.13;11.07;;;;;;;11.98;100.00;95063.94;5073556;28;20255;-60
2022/04/29 07:01:06;;;;;;;13.43;10.17;;;;;;;11.88;100.00;95049.59;5091271;28;20195;-60
2022/04/29 07:03:39;;;;;;;13.67;9.93;;;;;;;12.00;100.00;95056.19;5091281;28;20196;-61
2022/04/29 07:06:06;;;;;;;14.77;10.13;;;;;;;12.30;100.00;95049.31;5117631;22;20758;-60
2022/04/29 07:08:31;;;;;;;14.93;11.53;;;;;;;12.40;100.00;95069.75;5111365;28;20200;-60
2022/04/29 07:10:57;;;;;;;12.70;10.23;;;;;;;12.30;100.00;95063.81;5111710;28;20172;-60
2022/04/29 07:13:22;;;;;;;14.90;10.13;;;;;;;12.33;100.00;95050.78;5111400;28;20189;-60
2022/04/29 07:15:48;;;;;;;15.00;10.70;;;;;;;12.45;100.00;95062.50;5112294;28;20184;-58
2022/04/29 07:18:15;;;;;;;13.80;10.53;;;;;;;12.58;100.00;95057.97;5093401;28;20207;-60
2022/04/29 07:20:41;;;;;;;12.30;10.40;;;;;;;12.73;100.00;95074.50;5112086;28;20187;-61
2022/04/29 07:23:07;;;;;;;13.23;10.47;;;;;;;12.84;100.00;95078.66;5111461;28;20227;-63
2022/04/29 07:25:33;;;;;;;13.40;9.20;;;;;;;12.91;100.00;95087.41;5111809;28;20352;-60
2022/04/29 07:27:58;;;;;;;13.40;9.90;;;;;;;13.11;100.00;95092.41;5111493;28;20192;-60
2022/04/29 07:30:24;;;;;;;12.27;9.73;;;;;;;13.12;100.00;95099.13;5113341;28;20183;-60
2022/04/29 07:32:49;;;;;;;11.97;9.57;;;;;;;12.96;100.00;95077.59;5115050;28;20311;-60
2022/04/29 07:43:27;;;;;;;15.87;11.47;;;;;;;13.38;100.00;95084.06;5115193;27;20236;-59
2022/04/29 07:45:53;;;;;;;16.83;9.67;;;;;;;13.46;100.00;95086.75;5096724;28;20293;-59
2022/04/29 07:48:19;;;;;;;11.37;9.27;;;;;;;13.56;99.79;95113.09;5114730;28;20192;-60
2022/04/29 07:50:45;;;;;;;16.13;9.80;;;;;;;13.78;99.94;95119.63;5115314;28;20631;-61
2022/04/29 07:53:10;;;;;;;13.37;8.80;;;;;;;13.76;97.39;95154.72;5114583;28;20210;-61
2022/04/29 07:55:36;;;;;;;13.00;9.47;;;;;;;13.52;97.74;95133.91;5115124;28;20209;-59
2022/04/29 07:58:05;;;;;;;14.43;9.93;;;;;;;13.57;98.08;95124.94;5114773;28;20209;-61
2022/04/29 08:00:31;;;;;;;16.73;9.40;;;;;;;13.82;97.27;95131.19;5114775;28;20641;-60
2022/04/29 08:03:03;;;;;;;16.63;8.53;;;;;;;13.66;96.25;95133.50;5114424;28;20266;-61
2022/04/29 08:05:29;;;;;;;13.00;8.80;;;;;;;13.85;95.88;95149.63;5114960;28;20222;-60
2022/04/29 08:07:59;;;;;;;11.93;8.47;;;;;;;13.90;95.80;95141.53;5096098;28;20187;-60
2022/04/29 08:10:25;;;;;;;9.03;8.13;;;;;;;13.81;93.83;95162.81;5114901;28;20642;-59
2022/04/29 08:12:51;;;;;;;10.32;7.95;;;;;;;14.09;92.97;95161.94;5114539;28;20203;-60
2022/04/29 08:15:16;;;;;;;14.57;8.07;;;;;;;14.26;92.59;95174.81;5114759;28;20539;-60
2022/04/29 08:17:41;;;;;;;10.30;7.47;;;;;;;14.45;91.21;95181.66;5121540;22;20219;-60
2022/04/29 08:20:08;;;;;;;10.57;7.70;;;;;;;14.77;90.76;95182.06;5114334;28;20183;-62
2022/04/29 08:22:34;;;;;;;8.18;7.25;;;;;;;14.58;91.17;95155.75;5114018;28;20240;-61
2022/04/29 08:25:00;;;;;;;11.10;7.32;;;;;;;14.44;91.31;95157.03;5114064;28;20219;-60
2022/04/29 08:27:25;;;;;;;10.48;7.28;;;;;;;14.27;91.43;95155.97;5113972;28;20226;-61
2022/04/29 08:29:51;;;;;;;7.75;7.05;;;;;;;14.39;91.42;95143.03;5114061;28;20217;-60
2022/04/29 08:32:18;;;;;;;8.50;7.17;;;;;;;14.40;89.30;95180.47;5113868;28;20620;-60
2022/04/29 08:34:44;;;;;;;10.03;7.43;;;;;;;14.25;89.85;95162.16;5114130;28;20180;-60
2022/04/29 08:37:09;;;;;;;9.27;6.87;;;;;;;14.23;89.36;95169.19;5113813;28;20705;-60
2022/04/29 08:39:35;;;;;;;7.37;6.67;;;;;;;14.18;89.09;95168.81;5113820;28;20262;-59
2022/04/29 08:42:02;;;;;;;10.70;7.93;;;;;;;14.02;90.54;95137.88;5113250;28;20195;-59
2022/04/29 08:44:31;;;;;;;10.03;7.53;;;;;;;14.07;92.40;95094.81;5113803;28;20610;-60
2022/04/29 08:47:00;;;;;;;11.40;8.83;;;;;;;13.76;92.60;95089.09;5113557;28;20203;-60
2022/04/29 08:49:25;;;;;;;14.20;8.55;;;;;;;13.78;91.28;95114.50;5113511;28;20662;-60
2022/04/29 08:51:52;;;;;;;10.73;8.20;;;;;;;13.72;92.09;95099.72;5113995;28;20250;-60
2022/04/29 09:00:01;;;;;;;8.97;7.93;;;;;;;13.85;90.33;95123.25;5113755;28;20177;-59
2022/04/29 09:02:27;;;;;;;9.67;8.07;;;;;;;13.89;90.69;95116.94;5113549;28;20203;-60
2022/04/29 09:04:53;;;;;;;9.20;7.30;;;;;;;14.09;91.30;95098.03;5094791;28;20758;-61
2022/04/29 09:07:19;;;;;;;10.10;6.70;;;;;;;13.95;88.81;95147.03;5113131;28;20203;-62
2022/04/29 09:10:02;;;;;;;10.15;7.03;;;;;;;14.29;88.97;95143.88;5094826;28;20316;-60
2022/04/29 09:12:28;;;;;;;7.60;6.80;;;;;;;14.52;88.91;95136.66;5113271;28;20192;-61
2022/04/29 09:15:10;;;;;;;9.38;6.97;;;;;;;14.79;88.36;95149.44;5113369;28;20191;-60
2022/04/29 09:17:38;;;;;;;7.70;6.90;;;;;;;14.81;85.85;95185.94;5113573;28;20199;-59
2022/04/29 09:20:13;;;;;;;12.20;6.57;;;;;;;14.90;84.48;95197.09;5113074;28;20585;-62
2022/04/29 09:22:41;;;;;;;10.83;6.07;;;;;;;14.64;84.64;95191.81;5112959;28;20199;-59
2022/04/29 09:25:07;;;;;;;9.23;6.60;;;;;;;14.46;83.82;95196.06;5112944;28;20218;-60
2022/04/29 09:27:53;;;;;;;8.88;6.63;;;;;;;14.81;82.54;95201.28;5113053;28;20203;-61
2022/04/29 09:30:37;;;;;;;7.37;6.33;;;;;;;14.62;82.87;95185.22;5113169;28;20214;-60
2022/04/29 09:33:04;;;;;;;8.60;7.03;;;;;;;14.73;83.86;95174.78;5112693;28;20579;-60
2022/04/29 09:35:42;;;;;;;8.50;6.70;;;;;;;15.01;82.83;95192.56;5112875;28;20232;-60
2022/04/29 09:40:55;;;;;;;14.13;6.50;;;;;;;15.16;77.26;95203.13;5113199;28;20187;-60
2022/04/29 09:43:53;;;;;;;9.30;7.00;;;;;;;15.26;76.61;95215.88;5112550;28;20191;-60
2022/04/29 09:46:22;;;;;;;6.45;5.80;;;;;;;14.90;74.38;95217.56;5078321;28;20262;-60
2022/04/29 09:48:53;;;;;;;6.95;5.68;;;;;;;14.75;74.01;95213.84;5112805;28;20171;-60
2022/04/29 09:51:49;;;;;;;6.60;5.90;;;;;;;14.81;73.21;95201.28;5112946;28;20191;-60
2022/04/29 09:54:26;;;;;;;7.17;6.13;;;;;;;15.05;73.58;95182.84;5099156;28;20191;-61
2022/04/29 09:57:08;;;;;;;8.38;6.55;;;;;;;14.95;71.17;95233.28;5112293;28;20203;-61
2022/04/29 09:59:41;;;;;;;8.13;7.30;;;;;;;14.71;72.09;95202.28;5112400;28;20230;-60
2022/04/29 10:02:10;;;;;;;8.68;6.32;;;;;;;14.77;72.13;95187.16;5112589;28;20199;-60
2022/04/29 10:04:38;;;;;;;10.85;6.75;;;;;;;15.24;72.06;95194.72;5094510;28;20238;-60
2022/04/29 10:07:05;;;;;;;8.73;6.65;;;;;;;15.69;72.10;95175.00;5112444;28;20204;-61
2022/04/29 10:09:44;;;;;;;7.10;6.40;;;;;;;15.80;68.23;95255.06;5112302;28;20236;-61
2022/04/29 10:12:15;;;;;;;7.05;6.35;;;;;;;16.10;66.99;95265.91;5112016;28;20201;-61
2022/04/29 10:14:42;;;;;;;8.98;6.05;;;;;;;16.05;66.81;95239.88;5112161;28;20182;-59
2022/04/29 10:22:51;;;;;;;8.07;6.38;;;;;;;16.29;64.06;95253.69;5112181;28;20203;-60
2022/04/29 10:25:24;;;;;;;7.85;5.50;;;;;;;16.48;61.78;95288.63;5112152;28;20215;-60
2022/04/29 10:27:51;;;;;;;7.13;5.82;;;;;;;16.65;64.15;95213.34;5111763;28;20790;-59
2022/04/29 10:30:26;;;;;;;7.00;6.30;;;;;;;16.49;62.42;95244.06;5119546;22;20729;-60
2022/04/29 10:33:04;;;;;;;6.00;5.20;;;;;;;16.45;62.28;95246.09;5112040;28;20203;-60
2022/04/29 10:35:50;;;;;;;7.00;5.93;;;;;;;16.28;61.68;95246.94;5111768;28;20701;-61
2022/04/29 10:38:17;;;;;;;6.70;5.97;;;;;;;16.24;62.55;95222.53;5119296;22;20219;-60
2022/04/29 10:40:44;;;;;;;7.40;6.70;;;;;;;16.37;62.60;95212.69;5111828;28;20199;-61
2022/04/29 10:43:13;;;;;;;8.30;6.05;;;;;;;16.17;61.54;95248.94;5111957;28;20248;-60
2022/04/29 10:46:24;;;;;;;6.82;5.38;;;;;;;16.29;62.29;95222.09;5111911;28;20272;-60
2022/04/29 10:48:53;;;;;;;7.50;6.45;;;;;;;16.14;62.28;95211.56;5048999;28;20743;-60
2022/04/29 10:51:45;;;;;;;6.18;5.57;;;;;;;16.43;60.90;95224.91;5048912;28;20753;-59
2022/04/29 10:54:12;;;;;;;9.90;6.05;;;;;;;16.96;59.62;95253.00;5094023;28;20613;-59
2022/04/29 10:56:38;;;;;;;9.43;5.57;;;;;;;16.48;61.03;95207.28;5112093;28;20203;-61
2022/04/29 10:59:04;;;;;;;7.95;6.40;;;;;;;17.11;59.98;95240.38;5111874;28;20543;-61
2022/04/29 11:01:33;;;;;;;8.63;6.00;;;;;;;17.00;59.61;95235.50;5111628;28;20661;-61
2022/04/29 11:04:04;;;;;;;6.70;5.78;;;;;;;16.77;58.92;95232.66;5112451;28;20176;-61
2022/04/29 11:06:42;;;;;;;6.47;5.88;;;;;;;16.72;58.68;95222.06;5115844;28;20264;-60
2022/04/29 11:09:28;;;;;;;5.70;5.20;;;;;;;17.72;56.12;95274.31;5115310;28;20176;-61
2022/04/29 11:11:55;;;;;;;8.18;5.93;;;;;;;19.24;55.79;95260.50;5115643;28;20204;-61
2022/04/29 11:14:21;;;;;;;7.07;6.30;;;;;;;20.25;52.87;95299.97;5115578;28;20206;-61
2022/04/29 11:17:06;;;;;;;6.47;5.88;;;;;;;19.48;50.84;95331.03;5115392;28;20260;-60
2022/04/29 11:19:40;;;;;;;8.27;5.85;;;;;;;18.46;52.27;95258.78;5096975;28;20193;-60
2022/04/29 11:24:53;;;;;;;7.13;6.43;;;;;;;18.05;55.57;95165.31;5115430;28;20297;-60
2022/04/29 11:27:26;;;;;;;9.98;6.47;;;;;;;17.73;54.29;95201.34;5115505;28;20674;-61
2022/04/29 11:29:53;;;;;;;8.18;6.32;;;;;;;17.45;55.63;95154.50;5115334;28;20179;-61
2022/04/29 11:32:25;;;;;;;9.75;6.93;;;;;;;17.35;55.53;95158.22;5115839;28;20223;-64
2022/04/29 11:34:52;;;;;;;6.90;6.20;;;;;;;17.79;55.38;95166.47;5115005;28;20278;-61
2022/04/29 11:37:25;;;;;;;6.85;6.18;;;;;;;17.83;54.89;95163.41;5114940;28;20298;-60
2022/04/29 11:39:52;;;;;;;6.85;6.15;;;;;;;17.89;54.39;95175.63;5115209;28;20190;-60
2022/04/29 11:42:19;;;;;;;9.82;6.47;;;;;;;18.04;56.93;95119.97;5115382;28;20307;-60
2022/04/29 11:44:51;;;;;;;7.80;6.53;;;;;;;17.85;56.08;95132.38;5114975;28;20221;-60
2022/04/29 11:47:22;;;;;;;6.97;6.28;;;;;;;17.58;56.10;95136.88;5115362;28;20256;-59
2022/04/29 11:49:48;;;;;;;7.65;6.38;;;;;;;17.95;54.60;95163.88;5096595;28;20206;-61
2022/04/29 11:52:30;;;;;;;8.75;7.85;;;;;;;17.66;55.59;95136.06;5114957;28;20235;-61
2022/04/29 11:55:00;;;;;;;7.22;6.53;;;;;;;17.60;57.41;95093.81;5114609;28;20168;-60